createdAt,value
2018-09-26T00:00:14.536Z,0
2018-09-26T00:01:15.107Z,0
2018-09-26T00:02:15.679Z,0
2018-09-26T00:03:16.253Z,0
2018-09-26T00:04:16.837Z,0
2018-09-26T00:05:17.413Z,0
2018-09-26T00:06:17.996Z,0
2018-09-26T00:07:18.583Z,0
2018-09-26T00:08:19.155Z,0
2018-09-26T00:09:19.729Z,0
2018-09-26T00:10:20.299Z,0
2018-09-26T00:11:20.871Z,0
2018-09-26T00:12:21.456Z,0
2018-09-26T00:13:22.027Z,0
2018-09-26T00:14:22.601Z,0
2018-09-26T00:15:23.182Z,0
2018-09-26T00:16:23.757Z,0
2018-09-26T00:17:24.328Z,0
2018-09-26T00:18:24.900Z,0
2018-09-26T00:19:25.472Z,0
2018-09-26T00:20:26.044Z,0
2018-09-26T00:21:26.617Z,0
2018-09-26T00:22:27.188Z,0
2018-09-26T00:23:27.760Z,0
2018-09-26T00:24:28.332Z,0
2018-09-26T00:25:28.903Z,0
2018-09-26T00:26:29.476Z,0
2018-09-26T00:27:30.063Z,0
2018-09-26T00:28:30.635Z,0
2018-09-26T00:29:31.218Z,0
2018-09-26T00:30:31.791Z,0
2018-09-26T00:31:32.362Z,0
2018-09-26T00:32:32.935Z,0
2018-09-26T00:33:33.510Z,0
2018-09-26T00:34:34.079Z,0
2018-09-26T00:35:34.651Z,0
2018-09-26T00:36:35.222Z,0
2018-09-26T00:37:35.796Z,0
2018-09-26T00:38:36.383Z,0
2018-09-26T00:39:36.955Z,0
2018-09-26T00:40:37.526Z,0
2018-09-26T00:41:38.096Z,0
2018-09-26T00:42:38.667Z,0
2018-09-26T00:43:39.238Z,0
2018-09-26T00:44:39.811Z,0
2018-09-26T00:45:40.381Z,0
2018-09-26T00:46:40.954Z,0
2018-09-26T00:47:41.525Z,0
2018-09-26T00:48:42.096Z,0
2018-09-26T00:49:42.673Z,0
2018-09-26T00:50:43.240Z,0
2018-09-26T00:51:43.813Z,0
2018-09-26T00:52:44.383Z,0
2018-09-26T00:53:44.956Z,0
2018-09-26T00:54:45.529Z,0
2018-09-26T00:55:46.099Z,0
2018-09-26T00:56:46.672Z,0
2018-09-26T00:57:47.241Z,0
2018-09-26T00:58:47.805Z,0
2018-09-26T00:59:48.378Z,0
2018-09-26T01:00:48.952Z,0
2018-09-26T01:01:49.523Z,0
2018-09-26T01:02:50.095Z,0
2018-09-26T01:03:50.677Z,0
2018-09-26T01:04:51.248Z,0
2018-09-26T01:05:51.820Z,0
2018-09-26T01:06:52.389Z,0
2018-09-26T01:07:52.962Z,0
2018-09-26T01:08:53.534Z,0
2018-09-26T01:09:54.106Z,0
2018-09-26T01:10:54.681Z,0
2018-09-26T01:11:55.262Z,0
2018-09-26T01:12:55.832Z,0
2018-09-26T01:13:56.403Z,0
2018-09-26T01:14:56.976Z,0
2018-09-26T01:15:57.550Z,0
2018-09-26T01:16:58.123Z,0
2018-09-26T01:17:58.708Z,0
2018-09-26T01:18:59.279Z,0
2018-09-26T01:19:59.851Z,0
2018-09-26T01:21:00.426Z,0
2018-09-26T01:22:01.001Z,0
2018-09-26T01:23:01.585Z,0
2018-09-26T01:24:02.155Z,0
2018-09-26T01:25:02.741Z,0
2018-09-26T01:26:03.317Z,0
2018-09-26T01:27:03.885Z,0
2018-09-26T01:28:04.458Z,0
2018-09-26T01:29:05.031Z,0
2018-09-26T01:30:05.604Z,0
2018-09-26T01:31:06.190Z,0
2018-09-26T01:32:06.761Z,0
2018-09-26T01:33:07.348Z,0
2018-09-26T01:34:07.920Z,0
2018-09-26T01:35:08.492Z,0
2018-09-26T01:36:09.068Z,0
2018-09-26T01:37:09.651Z,0
2018-09-26T01:38:10.223Z,0
2018-09-26T01:39:10.797Z,0
2018-09-26T01:40:11.368Z,0
2018-09-26T01:41:11.939Z,0
2018-09-26T01:42:12.515Z,0
2018-09-26T01:43:13.084Z,0
2018-09-26T01:44:13.655Z,0
2018-09-26T01:45:14.227Z,0
2018-09-26T01:46:14.798Z,0
2018-09-26T01:47:15.373Z,0
2018-09-26T01:48:15.943Z,0
2018-09-26T01:49:16.515Z,0
2018-09-26T01:50:17.086Z,0
2018-09-26T01:51:17.659Z,0
2018-09-26T01:52:18.235Z,0
2018-09-26T01:53:18.817Z,0
2018-09-26T01:54:19.393Z,0
2018-09-26T01:55:19.981Z,0
2018-09-26T01:56:20.564Z,0
2018-09-26T01:57:21.138Z,0
2018-09-26T01:58:21.710Z,0
2018-09-26T01:59:22.296Z,0
2018-09-26T02:00:22.867Z,0
2018-09-26T02:01:23.443Z,0
2018-09-26T02:02:24.029Z,0
2018-09-26T02:03:24.600Z,0
2018-09-26T02:04:25.185Z,0
2018-09-26T02:05:25.757Z,0
2018-09-26T02:06:26.344Z,0
2018-09-26T02:07:26.916Z,0
2018-09-26T02:08:27.489Z,0
2018-09-26T02:09:28.060Z,0
2018-09-26T02:10:28.647Z,0
2018-09-26T02:11:29.218Z,0
2018-09-26T02:12:29.803Z,0
2018-09-26T02:13:30.379Z,0
2018-09-26T02:14:30.950Z,0
2018-09-26T02:15:31.522Z,0
2018-09-26T02:16:32.092Z,0
2018-09-26T02:17:32.663Z,0
2018-09-26T02:18:33.235Z,0
2018-09-26T02:19:33.807Z,0
2018-09-26T02:20:34.380Z,0
2018-09-26T02:21:34.967Z,0
2018-09-26T02:22:35.539Z,0
2018-09-26T02:23:36.165Z,0
2018-09-26T02:24:36.683Z,0
2018-09-26T02:25:37.255Z,0
2018-09-26T02:26:37.828Z,0
2018-09-26T02:27:38.399Z,0
2018-09-26T02:28:38.971Z,0
2018-09-26T02:29:39.554Z,0
2018-09-26T02:30:40.132Z,0
2018-09-26T02:31:40.719Z,0
2018-09-26T02:32:41.290Z,0
2018-09-26T02:33:41.862Z,0
2018-09-26T02:34:42.435Z,0
2018-09-26T02:35:43.007Z,0
2018-09-26T02:36:43.581Z,0
2018-09-26T02:37:44.166Z,0
2018-09-26T02:38:44.737Z,0
2018-09-26T02:39:45.309Z,0
2018-09-26T02:40:45.880Z,0
2018-09-26T02:41:46.451Z,0
2018-09-26T02:42:47.024Z,0
2018-09-26T02:43:47.595Z,0
2018-09-26T02:44:48.167Z,0
2018-09-26T02:45:48.739Z,0
2018-09-26T02:46:49.313Z,0
2018-09-26T02:47:49.895Z,0
2018-09-26T02:48:50.466Z,0
2018-09-26T02:49:51.054Z,0
2018-09-26T02:50:51.625Z,0
2018-09-26T02:51:52.197Z,0
2018-09-26T02:52:52.769Z,0
2018-09-26T02:53:53.344Z,0
2018-09-26T02:54:53.911Z,0
2018-09-26T02:55:54.508Z,0
2018-09-26T02:56:55.058Z,0
2018-09-26T02:57:55.628Z,0
2018-09-26T02:58:56.202Z,0
2018-09-26T02:59:56.774Z,0
2018-09-26T03:00:57.347Z,0
2018-09-26T03:01:57.918Z,0
2018-09-26T03:02:58.490Z,0
2018-09-26T03:03:59.062Z,0
2018-09-26T03:04:59.636Z,0
2018-09-26T03:06:00.206Z,0
2018-09-26T03:07:00.786Z,0
2018-09-26T03:08:01.349Z,0
2018-09-26T03:09:01.923Z,0
2018-09-26T03:10:02.495Z,0
2018-09-26T03:11:03.177Z,0
2018-09-26T03:12:03.636Z,0
2018-09-26T03:13:04.207Z,0
2018-09-26T03:14:04.780Z,0
2018-09-26T03:15:05.354Z,0
2018-09-26T03:16:05.926Z,0
2018-09-26T03:17:06.496Z,0
2018-09-26T03:18:07.069Z,0
2018-09-26T03:19:07.650Z,0
2018-09-26T03:20:08.227Z,0
2018-09-26T03:21:08.801Z,0
2018-09-26T03:22:09.373Z,0
2018-09-26T03:23:09.945Z,0
2018-09-26T03:24:10.527Z,0
2018-09-26T03:25:11.101Z,0
2018-09-26T03:26:11.670Z,0
2018-09-26T03:27:12.244Z,0
2018-09-26T03:28:12.815Z,0
2018-09-26T03:29:13.386Z,0
2018-09-26T03:30:13.956Z,0
2018-09-26T03:31:14.527Z,0
2018-09-26T03:32:15.112Z,0
2018-09-26T03:33:15.687Z,0
2018-09-26T03:34:16.256Z,0
2018-09-26T03:35:16.828Z,0
2018-09-26T03:36:17.398Z,0
2018-09-26T03:37:17.969Z,0
2018-09-26T03:38:18.653Z,0
2018-09-26T03:39:19.225Z,0
2018-09-26T03:40:19.799Z,0
2018-09-26T03:41:20.369Z,0
2018-09-26T03:42:20.939Z,0
2018-09-26T03:43:21.511Z,0
2018-09-26T03:44:22.084Z,0
2018-09-26T03:45:22.668Z,0
2018-09-26T03:46:23.239Z,0
2018-09-26T03:47:23.824Z,0
2018-09-26T03:48:24.396Z,0
2018-09-26T03:49:24.981Z,0
2018-09-26T03:50:25.553Z,0
2018-09-26T03:51:26.136Z,0
2018-09-26T03:52:26.714Z,0
2018-09-26T03:53:27.277Z,0
2018-09-26T03:54:27.849Z,0
2018-09-26T03:55:28.424Z,0
2018-09-26T03:56:29.008Z,0
2018-09-26T03:57:29.577Z,0
2018-09-26T03:58:30.151Z,0
2018-09-26T03:59:30.722Z,0
2018-09-26T04:00:31.308Z,0
2018-09-26T04:01:31.883Z,0
2018-09-26T04:02:32.454Z,0
2018-09-26T04:03:33.025Z,0
2018-09-26T04:04:33.596Z,0
2018-09-26T04:05:34.168Z,0
2018-09-26T04:06:34.741Z,0
2018-09-26T04:07:35.313Z,0
2018-09-26T04:08:35.885Z,0
2018-09-26T04:09:36.481Z,0
2018-09-26T04:10:37.041Z,0
2018-09-26T04:11:37.613Z,0
2018-09-26T04:12:38.242Z,0
2018-09-26T04:13:38.757Z,0
2018-09-26T04:14:39.329Z,0
2018-09-26T04:15:40.000Z,0
2018-09-26T04:16:40.488Z,0
2018-09-26T04:17:41.060Z,0
2018-09-26T04:18:41.633Z,0
2018-09-26T04:19:42.216Z,0
2018-09-26T04:20:42.796Z,0
2018-09-26T04:21:43.377Z,0
2018-09-26T04:22:43.945Z,0
2018-09-26T04:23:44.518Z,0
2018-09-26T04:24:45.096Z,0
2018-09-26T04:25:45.660Z,0
2018-09-26T04:26:46.333Z,0
2018-09-26T04:27:46.903Z,0
2018-09-26T04:28:47.437Z,0
2018-09-26T04:29:48.022Z,0
2018-09-26T04:30:48.596Z,0
2018-09-26T04:31:49.182Z,0
2018-09-26T04:32:49.894Z,0
2018-09-26T04:33:50.334Z,0
2018-09-26T04:34:50.896Z,0
2018-09-26T04:35:51.468Z,0
2018-09-26T04:36:52.041Z,0
2018-09-26T04:37:52.612Z,0
2018-09-26T04:38:53.265Z,0
2018-09-26T04:39:53.763Z,0
2018-09-26T04:40:54.333Z,0
2018-09-26T04:41:54.905Z,0
2018-09-26T04:42:55.492Z,0
2018-09-26T04:43:56.077Z,0
2018-09-26T04:44:56.648Z,0
2018-09-26T04:45:57.222Z,0
2018-09-26T04:46:57.793Z,0
2018-09-26T04:47:58.364Z,0
2018-09-26T04:48:58.937Z,0
2018-09-26T04:49:59.508Z,0
2018-09-26T04:51:00.080Z,0
2018-09-26T04:52:00.655Z,0
2018-09-26T04:53:01.238Z,0
2018-09-26T04:54:01.815Z,0
2018-09-26T04:55:02.393Z,0
2018-09-26T04:56:02.968Z,0
2018-09-26T04:57:03.538Z,0
2018-09-26T04:58:04.159Z,0
2018-09-26T04:59:04.682Z,0
2018-09-26T05:00:05.255Z,0
2018-09-26T05:01:05.827Z,0
2018-09-26T05:02:06.396Z,0
2018-09-26T05:03:06.969Z,0
2018-09-26T05:04:07.553Z,0
2018-09-26T05:05:08.124Z,0
2018-09-26T05:06:08.696Z,0
2018-09-26T05:07:09.270Z,0
2018-09-26T05:08:09.847Z,0
2018-09-26T05:09:10.412Z,0
2018-09-26T05:10:10.984Z,0
2018-09-26T05:11:11.556Z,4
2018-09-26T05:12:12.127Z,4
2018-09-26T05:13:12.701Z,0
2018-09-26T05:14:13.270Z,0
2018-09-26T05:15:13.843Z,4
2018-09-26T05:16:14.414Z,4
2018-09-26T05:17:14.987Z,4
2018-09-26T05:18:15.558Z,4
2018-09-26T05:19:16.131Z,4
2018-09-26T05:20:16.708Z,4
2018-09-26T05:21:17.276Z,4
2018-09-26T05:22:17.849Z,4
2018-09-26T05:23:18.423Z,4
2018-09-26T05:24:18.993Z,8
2018-09-26T05:25:19.565Z,4
2018-09-26T05:26:20.137Z,8
2018-09-26T05:27:20.714Z,8
2018-09-26T05:28:21.297Z,8
2018-09-26T05:29:21.868Z,8
2018-09-26T05:30:22.445Z,12
2018-09-26T05:31:23.013Z,12
2018-09-26T05:32:23.586Z,12
2018-09-26T05:33:24.159Z,16
2018-09-26T05:34:24.732Z,16
2018-09-26T05:35:25.305Z,16
2018-09-26T05:36:25.892Z,16
2018-09-26T05:37:26.465Z,16
2018-09-26T05:38:27.040Z,20
2018-09-26T05:39:27.628Z,20
2018-09-26T05:40:28.201Z,20
2018-09-26T05:41:28.773Z,24
2018-09-26T05:42:29.347Z,24
2018-09-26T05:43:29.920Z,24
2018-09-26T05:44:30.491Z,28
2018-09-26T05:45:31.066Z,28
2018-09-26T05:46:31.638Z,32
2018-09-26T05:47:32.212Z,32
2018-09-26T05:48:32.783Z,36
2018-09-26T05:49:33.356Z,40
2018-09-26T05:50:33.930Z,40
2018-09-26T05:51:34.502Z,44
2018-09-26T05:52:35.074Z,44
2018-09-26T05:53:35.725Z,48
2018-09-26T05:54:36.226Z,52
2018-09-26T05:55:36.800Z,48
2018-09-26T05:56:37.383Z,56
2018-09-26T05:57:37.955Z,60
2018-09-26T05:58:38.528Z,60
2018-09-26T05:59:39.164Z,64
2018-09-26T06:00:39.674Z,64
2018-09-26T06:01:40.246Z,68
2018-09-26T06:02:40.819Z,68
2018-09-26T06:03:41.392Z,68
2018-09-26T06:04:41.963Z,72
2018-09-26T06:05:42.538Z,76
2018-09-26T06:06:43.109Z,76
2018-09-26T06:07:43.684Z,80
2018-09-26T06:08:44.257Z,80
2018-09-26T06:09:44.842Z,84
2018-09-26T06:10:45.413Z,84
2018-09-26T06:11:45.988Z,88
2018-09-26T06:12:46.594Z,88
2018-09-26T06:13:47.132Z,92
2018-09-26T06:14:47.703Z,96
2018-09-26T06:15:48.278Z,100
2018-09-26T06:16:48.853Z,100
2018-09-26T06:17:49.425Z,104
2018-09-26T06:18:50.011Z,108
2018-09-26T06:19:50.589Z,112
2018-09-26T06:20:51.165Z,112
2018-09-26T06:21:51.738Z,116
2018-09-26T06:22:52.313Z,120
2018-09-26T06:23:52.891Z,120
2018-09-26T06:24:53.477Z,128
2018-09-26T06:25:54.052Z,128
2018-09-26T06:26:54.640Z,132
2018-09-26T06:27:55.231Z,136
2018-09-26T06:28:55.816Z,132
2018-09-26T06:29:56.389Z,136
2018-09-26T06:30:56.976Z,140
2018-09-26T06:31:57.565Z,140
2018-09-26T06:32:58.140Z,144
2018-09-26T06:33:58.714Z,148
2018-09-26T06:34:59.296Z,152
2018-09-26T06:35:59.864Z,152
2018-09-26T06:37:00.438Z,156
2018-09-26T06:38:01.013Z,156
2018-09-26T06:39:01.587Z,160
2018-09-26T06:40:02.176Z,164
2018-09-26T06:41:02.748Z,168
2018-09-26T06:42:03.336Z,168
2018-09-26T06:43:03.910Z,172
2018-09-26T06:44:04.486Z,180
2018-09-26T06:45:05.059Z,180
2018-09-26T06:46:05.634Z,184
2018-09-26T06:47:06.209Z,188
2018-09-26T06:48:06.785Z,192
2018-09-26T06:49:07.354Z,196
2018-09-26T06:50:07.931Z,200
2018-09-26T06:51:08.527Z,200
2018-09-26T06:52:09.109Z,204
2018-09-26T06:53:09.683Z,208
2018-09-26T06:54:10.267Z,208
2018-09-26T06:55:10.842Z,212
2018-09-26T06:56:11.430Z,216
2018-09-26T06:57:12.007Z,216
2018-09-26T06:58:12.582Z,220
2018-09-26T06:59:13.156Z,224
2018-09-26T07:00:13.753Z,228
2018-09-26T07:01:14.334Z,228
2018-09-26T07:02:14.911Z,232
2018-09-26T07:03:15.487Z,236
2018-09-26T07:04:16.074Z,240
2018-09-26T07:05:16.651Z,240
2018-09-26T07:06:17.225Z,248
2018-09-26T07:07:17.802Z,248
2018-09-26T07:08:18.380Z,256
2018-09-26T07:09:18.950Z,256
2018-09-26T07:10:19.544Z,260
2018-09-26T07:11:20.115Z,268
2018-09-26T07:12:20.704Z,268
2018-09-26T07:13:21.280Z,272
2018-09-26T07:14:21.852Z,272
2018-09-26T07:15:22.429Z,280
2018-09-26T07:16:23.004Z,280
2018-09-26T07:17:23.584Z,284
2018-09-26T07:18:24.160Z,284
2018-09-26T07:19:24.730Z,292
2018-09-26T07:20:25.306Z,296
2018-09-26T07:21:25.882Z,296
2018-09-26T07:22:26.456Z,300
2018-09-26T07:23:27.034Z,304
2018-09-26T07:24:27.622Z,304
2018-09-26T07:25:28.196Z,308
2018-09-26T07:26:28.774Z,312
2018-09-26T07:27:29.348Z,316
2018-09-26T07:28:29.922Z,320
2018-09-26T07:29:30.499Z,324
2018-09-26T07:30:31.073Z,328
2018-09-26T07:31:31.696Z,332
2018-09-26T07:32:32.230Z,336
2018-09-26T07:33:32.807Z,340
2018-09-26T07:34:33.385Z,344
2018-09-26T07:35:33.956Z,352
2018-09-26T07:36:34.534Z,356
2018-09-26T07:37:35.108Z,360
2018-09-26T07:38:35.726Z,364
2018-09-26T07:39:36.261Z,368
2018-09-26T07:40:36.833Z,372
2018-09-26T07:41:37.409Z,376
2018-09-26T07:42:37.989Z,380
2018-09-26T07:43:38.559Z,388
2018-09-26T07:44:39.136Z,388
2018-09-26T07:45:39.765Z,392
2018-09-26T07:46:40.292Z,396
2018-09-26T07:47:40.862Z,392
2018-09-26T07:48:41.437Z,396
2018-09-26T07:49:42.014Z,392
2018-09-26T07:50:42.588Z,396
2018-09-26T07:51:43.162Z,392
2018-09-26T07:52:43.739Z,392
2018-09-26T07:53:44.314Z,392
2018-09-26T07:54:44.888Z,396
2018-09-26T07:55:45.465Z,396
2018-09-26T07:56:46.041Z,396
2018-09-26T07:57:46.613Z,400
2018-09-26T07:58:47.191Z,396
2018-09-26T07:59:47.769Z,396
2018-09-26T08:00:48.341Z,400
2018-09-26T08:01:48.920Z,404
2018-09-26T08:02:49.495Z,412
2018-09-26T08:03:50.070Z,420
2018-09-26T08:04:50.659Z,420
2018-09-26T08:05:51.266Z,424
2018-09-26T08:06:51.813Z,420
2018-09-26T08:07:52.387Z,424
2018-09-26T08:08:52.962Z,428
2018-09-26T08:09:53.544Z,428
2018-09-26T08:10:54.115Z,428
2018-09-26T08:11:54.751Z,432
2018-09-26T08:12:55.267Z,440
2018-09-26T08:13:55.857Z,444
2018-09-26T08:14:56.434Z,436
2018-09-26T08:15:57.009Z,436
2018-09-26T08:16:57.586Z,432
2018-09-26T08:17:58.160Z,428
2018-09-26T08:18:58.737Z,424
2018-09-26T08:19:59.313Z,424
2018-09-26T08:20:59.891Z,428
2018-09-26T08:22:00.467Z,424
2018-09-26T08:23:01.043Z,424
2018-09-26T08:24:01.707Z,424
2018-09-26T08:25:02.211Z,420
2018-09-26T08:26:02.785Z,412
2018-09-26T08:27:03.361Z,416
2018-09-26T08:28:03.939Z,412
2018-09-26T08:29:04.515Z,416
2018-09-26T08:30:05.094Z,412
2018-09-26T08:31:05.666Z,412
2018-09-26T08:32:06.241Z,416
2018-09-26T08:33:06.817Z,420
2018-09-26T08:34:07.393Z,424
2018-09-26T08:35:07.970Z,428
2018-09-26T08:36:08.545Z,444
2018-09-26T08:37:09.121Z,452
2018-09-26T08:38:09.701Z,456
2018-09-26T08:39:10.273Z,468
2018-09-26T08:40:10.848Z,472
2018-09-26T08:41:11.426Z,480
2018-09-26T08:42:12.002Z,484
2018-09-26T08:43:12.579Z,500
2018-09-26T08:44:13.156Z,508
2018-09-26T08:45:13.731Z,512
2018-09-26T08:46:14.323Z,512
2018-09-26T08:47:14.900Z,524
2018-09-26T08:48:15.478Z,532
2018-09-26T08:49:16.064Z,540
2018-09-26T08:50:16.641Z,544
2018-09-26T08:51:17.217Z,536
2018-09-26T08:52:17.792Z,536
2018-09-26T08:53:18.371Z,540
2018-09-26T08:54:18.946Z,560
2018-09-26T08:55:19.537Z,568
2018-09-26T08:56:20.116Z,572
2018-09-26T08:57:20.690Z,572
2018-09-26T08:58:21.265Z,568
2018-09-26T08:59:21.841Z,564
2018-09-26T09:00:22.431Z,564
2018-09-26T09:01:23.009Z,572
2018-09-26T09:02:23.585Z,572
2018-09-26T09:03:24.161Z,564
2018-09-26T09:04:24.739Z,572
2018-09-26T09:05:25.315Z,560
2018-09-26T09:06:25.893Z,540
2018-09-26T09:07:26.471Z,540
2018-09-26T09:08:27.047Z,540
2018-09-26T09:09:27.624Z,532
2018-09-26T09:10:28.201Z,520
2018-09-26T09:11:28.811Z,500
2018-09-26T09:12:29.356Z,476
2018-09-26T09:13:29.931Z,468
2018-09-26T09:14:30.618Z,476
2018-09-26T09:15:31.086Z,484
2018-09-26T09:16:31.662Z,488
2018-09-26T09:17:32.242Z,496
2018-09-26T09:18:32.817Z,492
2018-09-26T09:19:33.408Z,496
2018-09-26T09:20:34.019Z,496
2018-09-26T09:21:34.564Z,504
2018-09-26T09:22:35.140Z,504
2018-09-26T09:23:35.716Z,508
2018-09-26T09:24:36.293Z,520
2018-09-26T09:25:36.870Z,524
2018-09-26T09:26:37.447Z,532
2018-09-26T09:27:38.092Z,544
2018-09-26T09:28:38.604Z,552
2018-09-26T09:29:39.180Z,560
2018-09-26T09:30:39.756Z,572
2018-09-26T09:31:40.336Z,568
2018-09-26T09:32:40.928Z,564
2018-09-26T09:33:41.519Z,564
2018-09-26T09:34:42.094Z,568
2018-09-26T09:35:42.676Z,568
2018-09-26T09:36:43.252Z,580
2018-09-26T09:37:43.828Z,580
2018-09-26T09:38:44.405Z,588
2018-09-26T09:39:44.986Z,588
2018-09-26T09:40:45.572Z,600
2018-09-26T09:41:46.148Z,584
2018-09-26T09:42:46.730Z,604
2018-09-26T09:43:47.304Z,612
2018-09-26T09:44:47.896Z,612
2018-09-26T09:45:48.486Z,608
2018-09-26T09:46:49.064Z,608
2018-09-26T09:47:49.642Z,608
2018-09-26T09:48:50.218Z,600
2018-09-26T09:49:50.797Z,596
2018-09-26T09:50:51.375Z,580
2018-09-26T09:51:51.953Z,572
2018-09-26T09:52:52.536Z,564
2018-09-26T09:53:53.119Z,580
2018-09-26T09:54:53.696Z,588
2018-09-26T09:55:54.273Z,588
2018-09-26T09:56:54.853Z,568
2018-09-26T09:57:55.429Z,560
2018-09-26T09:58:56.012Z,560
2018-09-26T09:59:56.586Z,552
2018-09-26T10:00:57.161Z,548
2018-09-26T10:01:57.740Z,552
2018-09-26T10:02:58.392Z,548
2018-09-26T10:03:58.895Z,544
2018-09-26T10:04:59.472Z,556
2018-09-26T10:06:00.050Z,564
2018-09-26T10:07:00.628Z,560
2018-09-26T10:08:01.210Z,560
2018-09-26T10:09:01.781Z,556
2018-09-26T10:10:02.360Z,556
2018-09-26T10:11:02.936Z,548
2018-09-26T10:12:03.513Z,532
2018-09-26T10:13:04.104Z,524
2018-09-26T10:14:04.693Z,520
2018-09-26T10:15:05.261Z,516
2018-09-26T10:16:05.853Z,524
2018-09-26T10:17:06.429Z,524
2018-09-26T10:18:07.008Z,532
2018-09-26T10:19:07.600Z,544
2018-09-26T10:20:08.253Z,548
2018-09-26T10:21:08.755Z,544
2018-09-26T10:22:09.334Z,552
2018-09-26T10:23:09.916Z,548
2018-09-26T10:24:10.503Z,544
2018-09-26T10:25:11.109Z,544
2018-09-26T10:26:11.735Z,548
2018-09-26T10:27:12.243Z,552
2018-09-26T10:28:12.820Z,552
2018-09-26T10:29:13.398Z,556
2018-09-26T10:30:13.977Z,568
2018-09-26T10:31:14.552Z,548
2018-09-26T10:32:15.192Z,544
2018-09-26T10:33:15.708Z,524
2018-09-26T10:34:16.286Z,500
2018-09-26T10:35:16.863Z,488
2018-09-26T10:36:17.443Z,472
2018-09-26T10:37:18.019Z,476
2018-09-26T10:38:18.631Z,488
2018-09-26T10:39:19.190Z,492
2018-09-26T10:40:19.769Z,488
2018-09-26T10:41:20.356Z,488
2018-09-26T10:42:20.938Z,484
2018-09-26T10:43:21.529Z,484
2018-09-26T10:44:22.175Z,480
2018-09-26T10:45:22.684Z,480
2018-09-26T10:46:23.262Z,476
2018-09-26T10:47:23.853Z,468
2018-09-26T10:48:24.444Z,460
2018-09-26T10:49:25.021Z,456
2018-09-26T10:50:25.649Z,452
2018-09-26T10:51:26.178Z,448
2018-09-26T10:52:26.755Z,440
2018-09-26T10:53:27.333Z,452
2018-09-26T10:54:27.910Z,428
2018-09-26T10:55:28.486Z,424
2018-09-26T10:56:29.212Z,424
2018-09-26T10:57:29.643Z,420
2018-09-26T10:58:30.219Z,424
2018-09-26T10:59:30.800Z,428
2018-09-26T11:00:31.375Z,424
2018-09-26T11:01:31.955Z,432
2018-09-26T11:02:32.611Z,420
2018-09-26T11:03:33.109Z,424
2018-09-26T11:04:33.701Z,440
2018-09-26T11:05:34.278Z,444
2018-09-26T11:06:34.856Z,452
2018-09-26T11:07:35.434Z,444
2018-09-26T11:08:36.013Z,452
2018-09-26T11:09:36.591Z,444
2018-09-26T11:10:37.171Z,444
2018-09-26T11:11:37.747Z,452
2018-09-26T11:12:38.354Z,456
2018-09-26T11:13:38.903Z,468
2018-09-26T11:14:39.484Z,472
2018-09-26T11:15:40.073Z,476
2018-09-26T11:16:40.650Z,484
2018-09-26T11:17:41.231Z,476
2018-09-26T11:18:41.863Z,468
2018-09-26T11:19:42.385Z,472
2018-09-26T11:20:42.964Z,464
2018-09-26T11:21:43.541Z,456
2018-09-26T11:22:44.121Z,468
2018-09-26T11:23:44.698Z,468
2018-09-26T11:24:45.275Z,472
2018-09-26T11:25:45.854Z,472
2018-09-26T11:26:46.432Z,476
2018-09-26T11:27:47.009Z,472
2018-09-26T11:28:47.588Z,468
2018-09-26T11:29:48.165Z,468
2018-09-26T11:30:48.744Z,464
2018-09-26T11:31:49.323Z,464
2018-09-26T11:32:49.903Z,456
2018-09-26T11:33:50.565Z,456
2018-09-26T11:34:51.060Z,448
2018-09-26T11:35:51.639Z,452
2018-09-26T11:36:52.218Z,448
2018-09-26T11:37:52.796Z,444
2018-09-26T11:38:53.374Z,440
2018-09-26T11:39:53.953Z,432
2018-09-26T11:40:54.534Z,416
2018-09-26T11:41:55.109Z,428
2018-09-26T11:42:55.687Z,436
2018-09-26T11:43:56.265Z,448
2018-09-26T11:44:56.846Z,460
2018-09-26T11:45:57.453Z,456
2018-09-26T11:46:58.002Z,464
2018-09-26T11:47:58.582Z,464
2018-09-26T11:48:59.164Z,464
2018-09-26T11:49:59.738Z,460
2018-09-26T11:51:00.318Z,468
2018-09-26T11:52:00.912Z,472
2018-09-26T11:53:01.490Z,472
2018-09-26T11:54:02.068Z,472
2018-09-26T11:55:02.646Z,472
2018-09-26T11:56:03.260Z,472
2018-09-26T11:57:03.804Z,468
2018-09-26T11:58:04.390Z,468
2018-09-26T11:59:04.962Z,464
2018-09-26T12:00:05.543Z,464
2018-09-26T12:01:06.134Z,468
2018-09-26T12:02:06.785Z,464
2018-09-26T12:03:07.289Z,472
2018-09-26T12:04:07.919Z,468
2018-09-26T12:05:08.446Z,460
2018-09-26T12:06:09.037Z,456
2018-09-26T12:07:09.659Z,456
2018-09-26T12:08:10.192Z,464
2018-09-26T12:09:10.763Z,456
2018-09-26T12:10:11.387Z,456
2018-09-26T12:11:11.918Z,464
2018-09-26T12:12:12.502Z,460
2018-09-26T12:13:13.076Z,464
2018-09-26T12:14:13.671Z,464
2018-09-26T12:15:14.248Z,464
2018-09-26T12:16:14.897Z,468
2018-09-26T12:17:15.406Z,464
2018-09-26T12:18:16.010Z,472
2018-09-26T12:19:16.598Z,472
2018-09-26T12:20:17.143Z,468
2018-09-26T12:21:30.252Z,476
2018-09-26T12:22:18.371Z,480
2018-09-26T12:23:18.883Z,480
2018-09-26T12:24:19.524Z,480
2018-09-26T12:25:20.125Z,480
2018-09-26T12:26:20.646Z,480
2018-09-26T12:27:21.227Z,484
2018-09-26T12:28:21.871Z,488
2018-09-26T12:29:22.386Z,488
2018-09-26T12:30:23.050Z,492
2018-09-26T12:31:23.544Z,492
2018-09-26T12:32:24.123Z,500
2018-09-26T12:33:24.702Z,504
2018-09-26T12:34:25.334Z,504
2018-09-26T12:35:25.861Z,508
2018-09-26T12:36:26.444Z,512
2018-09-26T12:37:27.025Z,520
2018-09-26T12:38:27.601Z,520
2018-09-26T12:39:28.179Z,524
2018-09-26T12:40:28.760Z,528
2018-09-26T12:41:29.337Z,524
2018-09-26T12:42:29.917Z,532
2018-09-26T12:43:30.511Z,516
2018-09-26T12:44:31.091Z,532
2018-09-26T12:45:31.669Z,532
2018-09-26T12:46:32.254Z,532
2018-09-26T12:47:32.830Z,536
2018-09-26T12:48:33.460Z,552
2018-09-26T12:49:33.986Z,556
2018-09-26T12:50:34.565Z,560
2018-09-26T12:51:35.144Z,556
2018-09-26T12:52:35.725Z,560
2018-09-26T12:53:36.377Z,560
2018-09-26T12:54:36.880Z,560
2018-09-26T12:55:37.460Z,560
2018-09-26T12:56:38.039Z,568
2018-09-26T12:57:38.620Z,572
2018-09-26T12:58:39.199Z,576
2018-09-26T12:59:39.777Z,580
2018-09-26T13:00:40.404Z,584
2018-09-26T13:01:40.944Z,604
2018-09-26T13:02:41.620Z,604
2018-09-26T13:03:42.105Z,608
2018-09-26T13:04:42.699Z,612
2018-09-26T13:05:43.289Z,608
2018-09-26T13:06:43.882Z,596
2018-09-26T13:07:44.459Z,604
2018-09-26T13:08:45.040Z,592
2018-09-26T13:09:45.618Z,576
2018-09-26T13:10:46.196Z,548
2018-09-26T13:11:46.777Z,548
2018-09-26T13:12:47.370Z,528
2018-09-26T13:13:47.951Z,524
2018-09-26T13:14:48.530Z,492
2018-09-26T13:15:49.110Z,520
2018-09-26T13:16:49.690Z,524
2018-09-26T13:17:50.270Z,504
2018-09-26T13:18:50.893Z,520
2018-09-26T13:19:51.428Z,524
2018-09-26T13:20:52.009Z,516
2018-09-26T13:21:52.588Z,516
2018-09-26T13:22:53.181Z,536
2018-09-26T13:23:53.762Z,540
2018-09-26T13:24:54.344Z,500
2018-09-26T13:25:54.924Z,496
2018-09-26T13:26:55.501Z,492
2018-09-26T13:27:56.082Z,560
2018-09-26T13:28:56.661Z,576
2018-09-26T13:29:57.242Z,584
2018-09-26T13:30:57.879Z,588
2018-09-26T13:31:58.414Z,588
2018-09-26T13:32:58.997Z,588
2018-09-26T13:33:59.576Z,588
2018-09-26T13:35:00.169Z,588
2018-09-26T13:36:00.750Z,588
2018-09-26T13:37:01.328Z,592
2018-09-26T13:38:01.908Z,596
2018-09-26T13:39:02.551Z,596
2018-09-26T13:40:03.069Z,596
2018-09-26T13:41:03.648Z,596
2018-09-26T13:42:04.261Z,600
2018-09-26T13:43:04.836Z,612
2018-09-26T13:44:05.436Z,616
2018-09-26T13:45:05.996Z,620
2018-09-26T13:46:06.588Z,628
2018-09-26T13:47:07.157Z,628
2018-09-26T13:48:07.778Z,632
2018-09-26T13:49:08.316Z,636
2018-09-26T13:50:08.919Z,640
2018-09-26T13:51:09.476Z,640
2018-09-26T13:52:10.065Z,644
2018-09-26T13:53:10.652Z,644
2018-09-26T13:54:11.304Z,644
2018-09-26T13:55:11.819Z,648
2018-09-26T13:56:12.412Z,652
2018-09-26T13:57:12.981Z,652
2018-09-26T13:58:13.568Z,656
2018-09-26T13:59:14.140Z,652
2018-09-26T14:00:14.733Z,656
2018-09-26T14:01:15.304Z,656
2018-09-26T14:02:15.942Z,652
2018-09-26T14:03:16.461Z,652
2018-09-26T14:04:17.062Z,652
2018-09-26T14:05:17.617Z,648
2018-09-26T14:06:18.211Z,652
2018-09-26T14:07:18.805Z,656
2018-09-26T14:08:19.386Z,660
2018-09-26T14:09:19.965Z,660
2018-09-26T14:10:20.546Z,668
2018-09-26T14:11:21.128Z,668
2018-09-26T14:12:21.775Z,672
2018-09-26T14:13:22.309Z,664
2018-09-26T14:14:22.906Z,668
2018-09-26T14:15:23.467Z,660
2018-09-26T14:16:24.049Z,668
2018-09-26T14:17:24.701Z,684
2018-09-26T14:18:25.310Z,684